createdAt,value
2022-09-13T00:02:23.131Z,99568.09
2022-09-13T00:04:50.934Z,99574.50
2022-09-13T00:07:18.634Z,99572.03
2022-09-13T00:09:46.412Z,99575.94
2022-09-13T00:12:14.273Z,99577.16
2022-09-13T00:14:41.662Z,99581.00
2022-09-13T00:17:08.969Z,99570.06
2022-09-13T00:19:36.688Z,99563.66
2022-09-13T00:22:04.134Z,99565.94
2022-09-13T00:24:31.684Z,99568.50
2022-09-13T00:26:59.107Z,99566.22
2022-09-13T00:29:27.065Z,99561.56
2022-09-13T00:31:54.757Z,99560.56
2022-09-13T00:34:22.206Z,99557.47
2022-09-13T00:36:49.605Z,99558.25
2022-09-13T00:39:17.020Z,99555.16
2022-09-13T00:41:44.646Z,99561.41
2022-09-13T00:44:30.808Z,99552.03
2022-09-13T00:46:58.353Z,99560.34
2022-09-13T00:49:36.483Z,99543.47
2022-09-13T00:52:05.346Z,99549.25
2022-09-13T00:54:41.112Z,99544.72
2022-09-13T00:57:10.137Z,99541.41
2022-09-13T00:59:38.879Z,99542.31
2022-09-13T01:02:06.372Z,99544.72
2022-09-13T01:04:34.614Z,99543.38
2022-09-13T01:07:02.831Z,99544.00
2022-09-13T01:09:33.438Z,99544.41
2022-09-13T01:12:04.628Z,99542.75
2022-09-13T01:14:32.332Z,99540.88
2022-09-13T01:17:01.270Z,99541.50
2022-09-13T01:19:30.471Z,99539.22
2022-09-13T01:22:10.215Z,99544.81
2022-09-13T01:24:41.452Z,99542.84
2022-09-13T01:27:27.556Z,99539.81
2022-09-13T01:30:13.863Z,99549.56
2022-09-13T01:33:02.014Z,99557.03
2022-09-13T01:35:38.670Z,99548.72
2022-09-13T01:38:22.138Z,99545.00
2022-09-13T01:41:07.323Z,99536.75
2022-09-13T01:43:44.237Z,99537.16
2022-09-13T01:46:15.106Z,99539.41
2022-09-13T01:48:58.422Z,99545.44
2022-09-13T01:51:27.928Z,99546.97
2022-09-13T01:54:08.241Z,99543.88
2022-09-13T01:56:35.684Z,99544.81
2022-09-13T01:59:12.206Z,99550.50
2022-09-13T02:01:41.062Z,99548.50
2022-09-13T02:04:09.860Z,99543.47
2022-09-13T02:06:39.071Z,99544.59
2022-09-13T02:09:12.007Z,99542.22
2022-09-13T02:11:40.337Z,99536.84
2022-09-13T02:14:10.010Z,99545.53
2022-09-13T02:16:42.081Z,99536.56
2022-09-13T02:19:19.166Z,99542.13
2022-09-13T02:21:48.108Z,99536.44
2022-09-13T02:24:19.828Z,99540.06
2022-09-13T02:26:47.438Z,99545.22
2022-09-13T02:29:17.214Z,99537.13
2022-09-13T02:31:56.997Z,99533.63
2022-09-13T02:34:32.371Z,99535.28
2022-09-13T02:36:59.866Z,99529.19
2022-09-13T02:39:27.657Z,99533.25
2022-09-13T02:42:14.006Z,99534.31
2022-09-13T02:44:42.643Z,99537.97
2022-09-13T02:47:23.165Z,99537.78
2022-09-13T02:50:09.767Z,99526.78
2022-09-13T02:52:48.761Z,99528.19
2022-09-13T02:55:42.452Z,99533.81
2022-09-13T02:58:11.516Z,99532.31
2022-09-13T03:00:39.439Z,99531.69
2022-09-13T03:03:07.538Z,99538.41
2022-09-13T03:05:34.986Z,99525.47
2022-09-13T03:08:02.574Z,99524.84
2022-09-13T03:10:36.987Z,99521.97
2022-09-13T03:13:35.011Z,99518.88
2022-09-13T03:16:07.248Z,99512.75
2022-09-13T03:18:46.649Z,99513.69
2022-09-13T03:21:34.481Z,99506.13
2022-09-13T03:24:11.202Z,99509.97
2022-09-13T03:26:41.522Z,99500.53
2022-09-13T03:29:20.062Z,99504.38
2022-09-13T03:32:10.177Z,99499.84
2022-09-13T03:34:57.206Z,99504.78
2022-09-13T03:37:29.528Z,99507.06
2022-09-13T03:39:58.038Z,99502.19
2022-09-13T03:42:28.169Z,99499.41
2022-09-13T03:44:55.932Z,99498.97
2022-09-13T03:47:24.202Z,99493.41
2022-09-13T03:49:52.095Z,99493.50
2022-09-13T03:52:19.688Z,99497.03
2022-09-13T03:54:46.985Z,99495.47
2022-09-13T03:57:15.533Z,99493.38
2022-09-13T03:59:46.627Z,99493.59
2022-09-13T04:02:14.599Z,99491.53
2022-09-13T04:04:42.304Z,99496.72
2022-09-13T04:07:11.006Z,99497.97
2022-09-13T04:09:38.684Z,99487.72
2022-09-13T04:12:06.440Z,99488.84
2022-09-13T04:14:33.843Z,99491.00
2022-09-13T04:17:01.348Z,99492.28
2022-09-13T04:19:29.046Z,99485.50
2022-09-13T04:21:56.698Z,99491.19
2022-09-13T04:24:25.062Z,99485.31
2022-09-13T04:26:53.801Z,99483.25
2022-09-13T04:29:21.624Z,99484.63
2022-09-13T04:31:49.530Z,99481.19
2022-09-13T04:34:18.615Z,99486.53
2022-09-13T04:36:47.437Z,99486.59
2022-09-13T04:39:15.319Z,99490.69
2022-09-13T04:41:44.784Z,99487.53
2022-09-13T04:44:12.519Z,99486.69
2022-09-13T04:46:39.934Z,99493.88
2022-09-13T04:49:07.407Z,99496.59
2022-09-13T04:51:34.871Z,99487.50
2022-09-13T04:54:02.886Z,99481.72
2022-09-13T04:56:30.356Z,99505.81
2022-09-13T04:58:58.360Z,99499.84
2022-09-13T05:01:27.876Z,99499.28
2022-09-13T05:03:55.866Z,99498.47
2022-09-13T05:06:23.260Z,99492.56
2022-09-13T05:08:52.394Z,99498.69
2022-09-13T05:11:19.988Z,99488.13
2022-09-13T05:13:53.243Z,99494.97
2022-09-13T05:16:21.541Z,99491.53
2022-09-13T05:18:49.192Z,99494.84
2022-09-13T05:21:16.752Z,99494.66
2022-09-13T05:23:44.580Z,99503.97
2022-09-13T05:26:12.053Z,99499.84
2022-09-13T05:28:39.474Z,99498.69
2022-09-13T05:31:07.922Z,99502.41
2022-09-13T05:33:36.975Z,99513.06
2022-09-13T05:36:05.915Z,99500.44
2022-09-13T05:38:33.868Z,99503.03
2022-09-13T05:41:02.460Z,99505.31
2022-09-13T05:43:30.792Z,99504.16
2022-09-13T05:46:07.912Z,99507.34
2022-09-13T05:48:35.961Z,99505.91
2022-09-13T05:51:10.632Z,99505.09
2022-09-13T05:53:40.024Z,99510.56
2022-09-13T05:56:15.826Z,99517.00
2022-09-13T05:58:45.773Z,99511.31
2022-09-13T06:01:13.286Z,99519.28
2022-09-13T06:03:40.831Z,99517.81
2022-09-13T06:06:08.426Z,99515.56
2022-09-13T06:08:36.062Z,99521.25
2022-09-13T06:11:10.649Z,99518.22
2022-09-13T06:13:38.978Z,99526.72
2022-09-13T06:16:07.714Z,99529.50
2022-09-13T06:18:36.075Z,99527.25
2022-09-13T06:21:07.663Z,99532.31
2022-09-13T06:23:35.800Z,99531.78
2022-09-13T06:26:22.208Z,99537.47
2022-09-13T06:28:54.035Z,99537.19
2022-09-13T06:31:26.601Z,99535.50
2022-09-13T06:33:58.133Z,99536.03
2022-09-13T06:36:26.124Z,99538.50
2022-09-13T06:38:57.915Z,99540.56
2022-09-13T06:41:28.496Z,99540.56
2022-09-13T06:43:57.743Z,99546.00
2022-09-13T06:46:26.777Z,99546.78
2022-09-13T06:48:54.355Z,99534.56
2022-09-13T06:51:22.708Z,99540.47
2022-09-13T06:53:50.516Z,99541.19
2022-09-13T06:56:28.151Z,99544.41
2022-09-13T06:58:58.947Z,99540.69
2022-09-13T07:01:27.610Z,99536.44
2022-09-13T07:03:55.981Z,99534.69
2022-09-13T07:06:24.373Z,99539.34
2022-09-13T07:08:53.327Z,99538.94
2022-09-13T07:11:21.920Z,99541.72
2022-09-13T07:13:53.799Z,99543.88
2022-09-13T07:16:22.027Z,99541.00
2022-09-13T07:18:53.507Z,99538.78
2022-09-13T07:21:21.416Z,99539.44
2022-09-13T07:23:49.241Z,99540.16
2022-09-13T07:26:17.045Z,99548.25
2022-09-13T07:28:47.302Z,99541.81
2022-09-13T07:31:16.182Z,99543.38
2022-09-13T07:33:43.820Z,99550.09
2022-09-13T07:36:12.149Z,99542.44
2022-09-13T07:38:40.448Z,99546.78
2022-09-13T07:41:19.622Z,99535.69
2022-09-13T07:43:47.086Z,99545.44
2022-09-13T07:46:15.670Z,99544.59
2022-09-13T07:48:44.121Z,99546.75
2022-09-13T07:51:11.528Z,99545.63
2022-09-13T07:53:39.489Z,99536.63
2022-09-13T07:56:07.560Z,99537.16
2022-09-13T07:58:36.513Z,99545.31
2022-09-13T08:01:08.003Z,99545.84
2022-09-13T08:03:35.953Z,99550.59
2022-09-13T08:06:03.532Z,99542.34
2022-09-13T08:08:31.218Z,99541.19
2022-09-13T08:10:58.738Z,99553.31
2022-09-13T08:13:26.622Z,99541.81
2022-09-13T08:15:53.987Z,99544.09
2022-09-13T08:18:21.896Z,99543.56
2022-09-13T08:20:49.476Z,99530.59
2022-09-13T08:23:16.967Z,99529.78
2022-09-13T08:25:44.511Z,99543.16
2022-09-13T08:28:15.693Z,99531.34
2022-09-13T08:30:43.788Z,99538.00
2022-09-13T08:33:11.467Z,99541.03
2022-09-13T08:35:40.907Z,99538.25
2022-09-13T08:38:08.315Z,99541.53
2022-09-13T08:40:40.332Z,99533.28
2022-09-13T08:43:07.896Z,99531.50
2022-09-13T08:45:35.446Z,99539.38
2022-09-13T08:48:04.382Z,99538.88
2022-09-13T08:50:32.789Z,99532.22
2022-09-13T08:53:12.464Z,99527.84
2022-09-13T08:55:42.882Z,99537.41
2022-09-13T08:58:13.580Z,99528.19
2022-09-13T09:00:41.317Z,99535.63
2022-09-13T09:03:12.443Z,99532.63
2022-09-13T09:05:43.751Z,99536.03
2022-09-13T09:08:12.533Z,99531.47
2022-09-13T09:10:41.601Z,99532.72
2022-09-13T09:13:10.335Z,99535.75
2022-09-13T09:15:42.410Z,99540.50
2022-09-13T09:18:13.922Z,99526.19
2022-09-13T09:20:42.377Z,99534.78
2022-09-13T09:23:30.411Z,99525.72
2022-09-13T09:26:17.209Z,99533.94
2022-09-13T09:28:48.036Z,99529.22
2022-09-13T09:31:17.557Z,99531.06
2022-09-13T09:34:08.125Z,99533.28
2022-09-13T09:36:46.273Z,99533.56
2022-09-13T09:39:14.331Z,99533.53
2022-09-13T09:41:41.801Z,99531.69
2022-09-13T09:44:22.061Z,99530.22
2022-09-13T09:46:59.715Z,99531.25
2022-09-13T09:49:48.022Z,99532.25
2022-09-13T09:52:16.604Z,99533.66
2022-09-13T09:54:44.461Z,99539.41
2022-09-13T09:57:11.926Z,99545.22
2022-09-13T09:59:39.933Z,99550.22
2022-09-13T10:02:20.687Z,99542.41
2022-09-13T10:04:55.434Z,99545.69
2022-09-13T10:07:26.612Z,99543.31
2022-09-13T10:10:01.542Z,99544.00
2022-09-13T10:12:30.050Z,99537.38
2022-09-13T10:15:11.026Z,99538.78
2022-09-13T10:17:40.296Z,99535.28
2022-09-13T10:20:14.309Z,99539.41
2022-09-13T10:22:43.096Z,99538.63
2022-09-13T10:25:23.683Z,99537.16
2022-09-13T10:27:55.090Z,99532.22
2022-09-13T10:30:31.917Z,99531.41
2022-09-13T10:32:59.526Z,99542.50
2022-09-13T10:35:27.192Z,99523.56
2022-09-13T10:37:54.706Z,99534.41
2022-09-13T10:40:34.194Z,99541.41
2022-09-13T10:43:03.605Z,99532.47
2022-09-13T10:45:32.429Z,99536.16
2022-09-13T10:48:20.429Z,99533.81
2022-09-13T10:51:07.374Z,99534.59
2022-09-13T10:53:36.882Z,99527.03
2022-09-13T10:56:04.770Z,99532.97
2022-09-13T10:58:32.313Z,99533.66
2022-09-13T11:00:59.964Z,99533.88
2022-09-13T11:03:40.096Z,99534.88
2022-09-13T11:06:20.989Z,99538.81
2022-09-13T11:09:07.264Z,99538.19
2022-09-13T11:11:51.219Z,99534.56
2022-09-13T11:14:51.432Z,99535.72
2022-09-13T11:17:45.292Z,99530.56
2022-09-13T11:20:37.773Z,99531.41
2022-09-13T11:23:10.829Z,99524.31
2022-09-13T11:25:49.330Z,99521.00
2022-09-13T11:28:26.115Z,99519.72
2022-09-13T11:31:05.292Z,99521.78
2022-09-13T11:33:48.200Z,99532.06
2022-09-13T11:36:15.881Z,99525.78
2022-09-13T11:39:01.947Z,99525.91
2022-09-13T11:42:01.226Z,99524.63
2022-09-13T11:44:28.662Z,99524.59
2022-09-13T11:46:58.762Z,99522.56
2022-09-13T11:49:38.198Z,99531.97
2022-09-13T11:52:17.833Z,99525.81
2022-09-13T11:54:51.396Z,99518.13
2022-09-13T11:57:20.998Z,99519.03
2022-09-13T11:59:53.685Z,99526.84
2022-09-13T12:02:47.881Z,99532.25
2022-09-13T12:05:24.256Z,99539.44
2022-09-13T12:08:07.888Z,99532.81
2022-09-13T12:10:38.980Z,99520.25
2022-09-13T12:13:07.008Z,99530.72
2022-09-13T12:15:38.544Z,99530.53
2022-09-13T12:18:08.131Z,99526.69
2022-09-13T12:20:39.906Z,99526.56
2022-09-13T12:23:30.689Z,99523.31
2022-09-13T12:25:59.707Z,99523.56
2022-09-13T12:28:28.511Z,99525.31
2022-09-13T12:30:57.107Z,99525.88
2022-09-13T12:33:24.395Z,99523.16
2022-09-13T12:36:11.049Z,99526.63
2022-09-13T12:38:38.513Z,99530.25
2022-09-13T12:41:12.165Z,99535.22
2022-09-13T12:43:43.101Z,99541.53
2022-09-13T12:46:19.324Z,99540.28
2022-09-13T12:48:50.485Z,99538.31
2022-09-13T12:51:31.342Z,99551.22
2022-09-13T12:54:17.581Z,99550.88
2022-09-13T12:56:47.990Z,99552.34
2022-09-13T12:59:24.682Z,99542.16
2022-09-13T13:01:52.473Z,99557.66
2022-09-13T13:04:24.408Z,99554.69
2022-09-13T13:06:56.372Z,99556.34
2022-09-13T13:09:39.400Z,99560.38
2022-09-13T13:12:06.776Z,99555.53
2022-09-13T13:14:40.270Z,99556.56
2022-09-13T13:17:28.125Z,99561.50
2022-09-13T13:19:55.700Z,99551.59
2022-09-13T13:22:42.213Z,99554.75
2022-09-13T13:25:28.387Z,99554.13
2022-09-13T13:27:55.810Z,99550.13
2022-09-13T13:30:40.485Z,99555.63
2022-09-13T13:33:13.980Z,99556.59
2022-09-13T13:35:41.486Z,99557.59
2022-09-13T13:38:24.611Z,99562.78
2022-09-13T13:40:52.659Z,99553.75
2022-09-13T13:43:32.854Z,99556.72
2022-09-13T13:46:12.671Z,99558.03
2022-09-13T13:48:40.655Z,99549.25
2022-09-13T13:51:11.892Z,99553.19
2022-09-13T13:53:39.705Z,99558.06
2022-09-13T13:56:16.312Z,99563.66
2022-09-13T13:58:46.534Z,99561.47
2022-09-13T14:01:18.799Z,99560.72
2022-09-13T14:03:58.073Z,99562.34
2022-09-13T14:06:30.180Z,99556.28
2022-09-13T14:11:36.181Z,99561.31
2022-09-13T14:14:30.308Z,99563.03
2022-09-13T14:17:08.049Z,99564.41
2022-09-13T14:19:42.904Z,99558.81
2022-09-13T14:22:17.361Z,99564.56
2022-09-13T14:24:46.599Z,99554.72
2022-09-13T14:27:26.678Z,99566.63
2022-09-13T14:29:55.262Z,99566.00
2022-09-13T14:32:23.217Z,99554.72
2022-09-13T14:35:00.755Z,99560.63
2022-09-13T14:37:35.378Z,99570.91
2022-09-13T14:40:04.447Z,99568.63
2022-09-13T14:42:58.151Z,99564.13
2022-09-13T14:45:30.326Z,99565.56
2022-09-13T14:48:06.756Z,99575.38
2022-09-13T14:50:38.497Z,99578.09
2022-09-13T14:53:06.988Z,99582.16
2022-09-13T14:55:38.486Z,99587.81
2022-09-13T14:58:06.433Z,99580.50
2022-09-13T15:00:48.497Z,99597.25
2022-09-13T15:03:16.255Z,99596.69
2022-09-13T15:05:50.358Z,99588.78
2022-09-13T15:08:27.927Z,99590.88
2022-09-13T15:10:56.953Z,99584.91
2022-09-13T15:13:24.796Z,99588.03
2022-09-13T15:15:52.231Z,99600.50
2022-09-13T15:18:25.816Z,99589.88
2022-09-13T15:20:59.983Z,99602.09
2022-09-13T15:23:37.989Z,99592.53
2022-09-13T15:26:06.128Z,99591.25
2022-09-13T15:28:34.390Z,99596.34
2022-09-13T15:31:02.142Z,99596.16
2022-09-13T15:33:34.407Z,99605.25
2022-09-13T15:36:15.319Z,99605.91
2022-09-13T15:38:58.520Z,99609.44
2022-09-13T15:41:28.735Z,99615.50
2022-09-13T15:43:56.136Z,99613.81
2022-09-13T15:46:24.264Z,99625.22
2022-09-13T15:48:52.788Z,99628.31
2022-09-13T15:51:20.187Z,99618.41
2022-09-13T15:53:47.567Z,99629.16
2022-09-13T15:56:16.174Z,99622.13
2022-09-13T15:58:43.486Z,99636.63
2022-09-13T16:01:14.110Z,99638.28
2022-09-13T16:03:41.678Z,99636.72
2022-09-13T16:06:09.462Z,99636.50
2022-09-13T16:08:37.912Z,99648.00
2022-09-13T16:11:05.934Z,99650.06
2022-09-13T16:13:34.444Z,99659.09
2022-09-13T16:16:01.995Z,99659.59
2022-09-13T16:18:29.611Z,99668.28
2022-09-13T16:20:57.329Z,99656.97
2022-09-13T16:23:24.716Z,99661.44
2022-09-13T16:25:53.114Z,99659.78
2022-09-13T16:28:21.287Z,99671.56
2022-09-13T16:30:48.770Z,99675.69
2022-09-13T16:33:16.147Z,99677.50
2022-09-13T16:35:43.470Z,99677.91
2022-09-13T16:38:10.939Z,99678.78
2022-09-13T16:40:40.015Z,99684.38
2022-09-13T16:43:07.689Z,99686.63
2022-09-13T16:45:35.229Z,99701.75
2022-09-13T16:48:03.220Z,99700.09
2022-09-13T16:50:34.348Z,99700.38
2022-09-13T16:53:02.493Z,99702.56
2022-09-13T16:55:30.305Z,99695.25
2022-09-13T16:57:57.787Z,99694.59
2022-09-13T17:00:28.656Z,99691.78
2022-09-13T17:02:56.704Z,99691.41
2022-09-13T17:05:24.583Z,99684.78
2022-09-13T17:07:52.187Z,99697.59
2022-09-13T17:10:20.573Z,99696.97
2022-09-13T17:12:50.210Z,99704.44
2022-09-13T17:15:18.075Z,99708.75
2022-09-13T17:17:45.487Z,99710.81
2022-09-13T17:20:13.417Z,99721.38
2022-09-13T17:22:40.812Z,99714.38
2022-09-13T17:25:08.396Z,99722.25
2022-09-13T17:27:36.644Z,99719.59
2022-09-13T17:30:05.351Z,99724.91
2022-09-13T17:32:32.916Z,99727.13
2022-09-13T17:35:00.335Z,99732.38
2022-09-13T17:37:27.695Z,99733.53
2022-09-13T17:39:55.148Z,99733.00
2022-09-13T17:42:23.601Z,99737.78
2022-09-13T17:44:51.052Z,99732.44
2022-09-13T17:47:18.475Z,99730.88
2022-09-13T17:49:46.747Z,99734.75
2022-09-13T17:52:14.663Z,99740.88
2022-09-13T17:54:42.076Z,99737.75
2022-09-13T17:57:11.986Z,99747.06
2022-09-13T17:59:39.561Z,99744.75
2022-09-13T18:02:06.942Z,99745.22
2022-09-13T18:04:34.483Z,99735.25
2022-09-13T18:07:01.854Z,99745.91
2022-09-13T18:09:30.103Z,99743.13
2022-09-13T18:11:57.458Z,99748.97
2022-09-13T18:14:27.725Z,99747.59
2022-09-13T18:16:57.418Z,99746.31
2022-09-13T18:19:44.361Z,99748.13
2022-09-13T18:22:12.205Z,99755.00
2022-09-13T18:24:40.061Z,99750.00
2022-09-13T18:27:07.489Z,99750.38
2022-09-13T18:29:34.918Z,99754.88
2022-09-13T18:32:02.432Z,99749.66
2022-09-13T18:34:30.004Z,99748.41
2022-09-13T18:36:57.303Z,99752.31
2022-09-13T18:39:24.714Z,99747.94
2022-09-13T18:41:51.964Z,99746.91
2022-09-13T18:44:19.499Z,99753.19
2022-09-13T18:46:47.519Z,99746.31
2022-09-13T18:49:15.351Z,99749.44
2022-09-13T18:51:43.810Z,99739.69
2022-09-13T18:54:12.411Z,99742.59
2022-09-13T18:56:41.552Z,99737.25
2022-09-13T18:59:09.660Z,99737.50
2022-09-13T19:01:38.508Z,99735.84
2022-09-13T19:04:15.648Z,99741.41
2022-09-13T19:06:47.794Z,99738.97
2022-09-13T19:09:15.636Z,99735.91
2022-09-13T19:11:47.637Z,99731.63
2022-09-13T19:14:24.126Z,99735.34
2022-09-13T19:16:52.364Z,99733.28
2022-09-13T19:19:20.691Z,99736.88
2022-09-13T19:21:48.051Z,99733.88
2022-09-13T19:24:18.333Z,99730.75
2022-09-13T19:26:46.726Z,99741.22
2022-09-13T19:29:14.866Z,99728.69
2022-09-13T19:31:44.309Z,99734.16
2022-09-13T19:34:12.363Z,99731.63
2022-09-13T19:36:43.243Z,99737.50
2022-09-13T19:39:13.384Z,99738.97
2022-09-13T19:41:41.043Z,99746.50
2022-09-13T19:44:08.957Z,99746.81
2022-09-13T19:46:37.951Z,99745.97
2022-09-13T19:49:05.742Z,99745.44
2022-09-13T19:51:34.786Z,99753.47
2022-09-13T19:54:02.316Z,99761.56
2022-09-13T19:56:30.812Z,99751.97
2022-09-13T19:58:58.556Z,99766.00
2022-09-13T20:01:26.668Z,99761.06
2022-09-13T20:03:55.018Z,99758.97
2022-09-13T20:06:25.176Z,99765.09
2022-09-13T20:08:52.855Z,99762.38
2022-09-13T20:11:20.991Z,99774.06
2022-09-13T20:13:49.075Z,99774.06
2022-09-13T20:16:17.829Z,99772.13
2022-09-13T20:18:45.990Z,99772.13
2022-09-13T20:21:13.481Z,99779.69
2022-09-13T20:23:41.438Z,99780.34
2022-09-13T20:26:21.890Z,99785.34
2022-09-13T20:28:50.338Z,99789.34
2022-09-13T20:31:18.332Z,99789.41
2022-09-13T20:33:45.714Z,99788.09
2022-09-13T20:36:13.706Z,99789.69
2022-09-13T20:38:41.319Z,99789.25
2022-09-13T20:41:13.220Z,99786.84
2022-09-13T20:43:43.739Z,99796.88
2022-09-13T20:46:12.415Z,99795.47
2022-09-13T20:48:40.031Z,99811.44
2022-09-13T20:51:09.014Z,99808.63
2022-09-13T20:53:37.844Z,99809.44
2022-09-13T20:56:11.332Z,99802.78
2022-09-13T20:58:39.010Z,99812.34
2022-09-13T21:01:20.137Z,99816.88
2022-09-13T21:03:51.610Z,99824.41
2022-09-13T21:06:19.914Z,99819.97
2022-09-13T21:08:49.582Z,99818.28
2022-09-13T21:11:20.840Z,99824.66
2022-09-13T21:13:50.854Z,99822.44
2022-09-13T21:16:19.586Z,99828.00
2022-09-13T21:18:47.372Z,99819.38
2022-09-13T21:21:15.969Z,99813.31
2022-09-13T21:23:44.025Z,99828.03
2022-09-13T21:26:12.655Z,99826.03
2022-09-13T21:28:40.556Z,99821.88
2022-09-13T21:31:11.795Z,99827.75
2022-09-13T21:33:39.308Z,99823.84
2022-09-13T21:36:07.029Z,99813.03
2022-09-13T21:38:35.088Z,99820.00
2022-09-13T21:41:10.561Z,99820.28
2022-09-13T21:43:38.677Z,99818.56
2022-09-13T21:46:07.233Z,99821.84
2022-09-13T21:48:34.960Z,99811.53
2022-09-13T21:51:05.468Z,99827.97
2022-09-13T21:53:37.023Z,99826.28
2022-09-13T21:56:08.184Z,99822.13
2022-09-13T21:58:36.308Z,99812.03
2022-09-13T22:01:04.489Z,99825.19
2022-09-13T22:03:34.360Z,99812.34
2022-09-13T22:06:01.800Z,99816.25
2022-09-13T22:08:35.481Z,99820.47
2022-09-13T22:11:06.018Z,99822.13
2022-09-13T22:13:37.207Z,99822.19
2022-09-13T22:16:08.056Z,99827.00
2022-09-13T22:18:36.201Z,99824.22
2022-09-13T22:21:06.996Z,99828.69
2022-09-13T22:23:34.911Z,99832.03
2022-09-13T22:26:08.819Z,99822.06
2022-09-13T22:28:36.138Z,99838.13
2022-09-13T22:31:07.347Z,99833.69
2022-09-13T22:33:35.670Z,99836.22
2022-09-13T22:36:07.353Z,99841.25
2022-09-13T22:38:35.132Z,99836.41
2022-09-13T22:41:06.726Z,99842.78
2022-09-13T22:43:34.514Z,99829.91
2022-09-13T22:46:05.894Z,99845.44
2022-09-13T22:48:33.797Z,99844.91
2022-09-13T22:51:01.191Z,99845.31
2022-09-13T22:53:28.707Z,99845.94
2022-09-13T22:55:56.064Z,99850.91
2022-09-13T22:58:23.477Z,99852.63
2022-09-13T23:00:50.771Z,99847.06
2022-09-13T23:03:18.160Z,99850.38
2022-09-13T23:05:52.593Z,99850.06
2022-09-13T23:08:20.085Z,99853.03
2022-09-13T23:10:47.438Z,99848.69
2022-09-13T23:13:15.209Z,99853.00
2022-09-13T23:15:42.736Z,99843.31
2022-09-13T23:18:10.301Z,99844.97
2022-09-13T23:20:37.746Z,99847.00
2022-09-13T23:23:05.398Z,99849.19
2022-09-13T23:25:33.940Z,99855.31
2022-09-13T23:28:01.532Z,99857.34
2022-09-13T23:30:28.837Z,99857.78
2022-09-13T23:32:56.338Z,99860.28
2022-09-13T23:35:23.744Z,99856.03
2022-09-13T23:37:51.086Z,99864.19
2022-09-13T23:40:18.432Z,99861.44
2022-09-13T23:42:45.782Z,99859.69
2022-09-13T23:45:13.139Z,99856.94
2022-09-13T23:47:40.556Z,99863.91
2022-09-13T23:50:08.037Z,99864.72
2022-09-13T23:52:36.577Z,99866.38
2022-09-13T23:55:04.278Z,99868.06
2022-09-13T23:57:31.774Z,99868.56
2022-09-13T23:59:59.175Z,99871.97
